createdAt,value
2019-02-16T00:00:21.426Z,69.54
2019-02-16T00:01:21.432Z,68.77
2019-02-16T00:02:21.450Z,68.59
2019-02-16T00:03:21.446Z,68.40
2019-02-16T00:04:21.449Z,68.11
2019-02-16T00:05:21.468Z,67.16
2019-02-16T00:06:21.461Z,66.59
2019-02-16T00:07:21.468Z,66.43
2019-02-16T00:08:21.480Z,65.73
2019-02-16T00:09:21.498Z,65.38
2019-02-16T00:10:21.487Z,65.67
2019-02-16T00:11:21.494Z,65.19
2019-02-16T00:12:21.506Z,65.58
2019-02-16T00:13:21.498Z,65.45
2019-02-16T00:14:21.513Z,65.92
2019-02-16T00:15:21.520Z,65.92
2019-02-16T00:16:21.519Z,65.45
2019-02-16T00:17:21.570Z,65.64
2019-02-16T00:18:23.001Z,65.73
2019-02-16T00:19:21.545Z,65.83
2019-02-16T00:20:21.549Z,66.39
2019-02-16T00:21:21.563Z,67.82
2019-02-16T00:22:21.571Z,68.40
2019-02-16T00:23:21.568Z,68.68
2019-02-16T00:24:21.578Z,69.35
2019-02-16T00:25:21.577Z,70.01
2019-02-16T00:26:21.580Z,70.07
2019-02-16T00:27:21.590Z,70.64
2019-02-16T00:28:21.609Z,70.64
2019-02-16T00:29:21.600Z,70.54
2019-02-16T00:30:21.606Z,70.93
2019-02-16T00:31:21.616Z,71.31
2019-02-16T00:32:21.619Z,71.12
2019-02-16T00:33:21.649Z,71.31
2019-02-16T00:34:21.640Z,71.02
2019-02-16T07:19:21.040Z,95.26
2019-02-16T07:20:21.020Z,95.17
2019-02-16T07:22:15.070Z,95.36
2019-02-16T07:23:22.121Z,95.74
2019-02-16T07:25:08.193Z,95.93
2019-02-16T07:26:08.184Z,95.93
2019-02-16T07:28:02.625Z,96.12
2019-02-16T07:29:02.627Z,96.41
2019-02-16T07:30:02.621Z,96.03
2019-02-16T07:31:02.632Z,95.93
2019-02-16T07:32:02.630Z,95.84
2019-02-16T07:33:02.633Z,95.65
2019-02-16T07:34:02.641Z,95.65
2019-02-16T07:35:02.641Z,95.55
2019-02-16T07:36:02.640Z,95.74
2019-02-16T07:37:02.646Z,96.31
2019-02-16T07:38:02.652Z,95.74
2019-02-16T07:39:02.649Z,95.93
2019-02-16T07:40:02.667Z,95.74
2019-02-16T07:41:02.662Z,95.93
2019-02-16T07:42:02.663Z,95.55
2019-02-16T07:43:02.666Z,95.55
2019-02-16T07:44:02.672Z,95.93
2019-02-16T07:45:02.676Z,95.93
2019-02-16T07:46:02.704Z,96.41
2019-02-16T07:47:02.689Z,96.97
2019-02-16T07:48:02.684Z,96.59
2019-02-16T07:49:02.692Z,95.74
2019-02-16T07:50:02.687Z,95.45
2019-02-16T07:51:02.697Z,95.65
2019-02-16T07:52:02.701Z,95.93
2019-02-16T07:53:02.704Z,95.36
2019-02-16T07:54:02.713Z,95.26
2019-02-16T07:55:02.717Z,95.31
2019-02-16T07:56:02.719Z,95.03
2019-02-16T07:57:02.714Z,94.93
2019-02-16T07:58:02.723Z,95.12
2019-02-16T07:59:02.722Z,95.12
2019-02-16T08:00:02.733Z,95.12
2019-02-16T08:01:02.735Z,94.65
2019-02-16T08:02:02.745Z,94.56
2019-02-16T08:03:02.747Z,94.65
2019-02-16T08:04:02.769Z,94.65
2019-02-16T08:05:02.749Z,94.56
2019-02-16T08:06:02.755Z,94.65
2019-02-16T08:07:02.754Z,94.65
2019-02-16T08:08:02.765Z,94.84
2019-02-16T08:09:02.763Z,95.03
2019-02-16T08:10:02.774Z,94.84
2019-02-16T08:11:02.781Z,94.93
2019-02-16T08:12:02.777Z,94.60
2019-02-16T08:13:02.777Z,94.13
2019-02-16T08:14:02.782Z,93.65
2019-02-16T08:15:02.792Z,93.27
2019-02-16T08:16:02.791Z,92.99
2019-02-16T08:17:02.807Z,93.37
2019-02-16T08:18:02.804Z,93.27
2019-02-16T08:19:02.812Z,92.99
2019-02-16T08:20:02.807Z,92.99
2019-02-16T08:21:02.816Z,92.99
2019-02-16T08:22:02.817Z,92.33
2019-02-16T08:23:02.827Z,92.80
2019-02-16T08:24:02.831Z,92.23
2019-02-16T08:25:02.836Z,91.89
2019-02-16T08:26:02.845Z,90.76
2019-02-16T08:27:02.844Z,90.76
2019-02-16T08:28:02.848Z,89.53
2019-02-16T08:29:02.856Z,89.90
2019-02-16T08:30:02.864Z,89.43
2019-02-16T08:31:02.868Z,89.62
2019-02-16T08:32:02.877Z,89.53
2019-02-16T08:33:02.886Z,89.33
2019-02-16T08:34:02.885Z,88.95
2019-02-16T08:35:02.895Z,87.53
2019-02-16T08:36:02.899Z,87.72
2019-02-16T08:37:02.920Z,86.49
2019-02-16T08:38:02.909Z,85.58
2019-02-16T08:39:02.927Z,85.11
2019-02-16T08:40:02.930Z,84.29
2019-02-16T08:41:02.938Z,83.34
2019-02-16T08:42:02.956Z,82.43
2019-02-16T08:43:02.960Z,80.63
2019-02-16T08:44:02.964Z,79.39
2019-02-16T08:45:02.972Z,77.81
2019-02-16T08:46:02.993Z,76.20
2019-02-16T08:47:03.006Z,75.67
2019-02-16T08:48:03.005Z,75.09
2019-02-16T08:49:03.026Z,73.95
2019-02-16T08:50:03.036Z,72.75
2019-02-16T08:51:03.072Z,72.17
2019-02-16T08:52:03.064Z,71.22
2019-02-16T08:53:03.077Z,70.50
2019-02-16T08:54:03.101Z,69.54
2019-02-16T08:55:03.105Z,68.88
2019-02-16T08:56:03.117Z,68.40
2019-02-16T08:57:03.137Z,67.64
2019-02-16T08:58:03.185Z,67.74
2019-02-16T08:59:03.175Z,66.82
2019-02-16T09:00:03.182Z,66.24
2019-02-16T09:01:03.188Z,65.96
2019-02-16T09:02:03.208Z,65.13
2019-02-16T09:03:03.226Z,64.65
2019-02-16T09:04:03.235Z,64.56
2019-02-16T09:05:04.072Z,63.89
2019-02-16T09:06:03.269Z,63.80
2019-02-16T09:07:03.295Z,63.80
2019-02-16T09:08:03.292Z,63.23
2019-02-16T09:09:03.305Z,62.65
2019-02-16T09:10:03.320Z,62.94
2019-02-16T09:11:03.348Z,62.56
2019-02-16T09:12:03.371Z,62.21
2019-02-16T09:13:03.406Z,61.54
2019-02-16T09:14:03.405Z,61.25
2019-02-16T09:15:03.411Z,61.16
2019-02-16T09:16:03.429Z,61.07
2019-02-16T09:17:03.447Z,60.58
2019-02-16T09:18:03.451Z,60.52
2019-02-16T09:19:03.476Z,60.04
2019-02-16T09:20:03.482Z,60.04
2019-02-16T09:21:03.549Z,59.12
2019-02-16T09:22:03.519Z,58.93
2019-02-16T09:23:03.533Z,59.12
2019-02-16T09:24:03.571Z,59.12
2019-02-16T09:25:03.570Z,58.64
2019-02-16T09:26:03.587Z,58.07
2019-02-16T09:27:03.615Z,57.59
2019-02-16T09:28:03.616Z,57.87
2019-02-16T09:29:03.636Z,57.65
2019-02-16T09:30:03.656Z,57.97
2019-02-16T09:31:03.668Z,58.07
2019-02-16T09:32:03.676Z,57.68
2019-02-16T09:33:03.703Z,57.43
2019-02-16T09:34:03.716Z,56.47
2019-02-16T09:35:03.803Z,56.47
2019-02-16T09:36:03.753Z,56.31
2019-02-16T09:37:03.768Z,55.64
2019-02-16T09:38:03.787Z,55.26
2019-02-16T09:39:03.806Z,54.88
2019-02-16T09:40:03.817Z,54.78
2019-02-16T09:41:03.837Z,54.33
2019-02-16T09:42:03.848Z,54.04
2019-02-16T09:43:03.855Z,53.75
2019-02-16T09:44:03.889Z,54.23
2019-02-16T09:45:03.908Z,54.04
2019-02-16T09:46:03.930Z,54.16
2019-02-16T09:47:03.936Z,52.92
2019-02-16T09:48:03.965Z,52.83
2019-02-16T09:49:03.961Z,52.56
2019-02-16T09:50:03.983Z,51.99
2019-02-16T09:51:04.004Z,51.99
2019-02-16T09:52:04.024Z,50.93
2019-02-16T09:53:04.035Z,51.15
2019-02-16T09:54:08.337Z,50.48
2019-02-16T09:55:04.075Z,50.10
2019-02-16T09:56:04.083Z,49.91
2019-02-16T09:57:04.111Z,49.91
2019-02-16T09:58:04.137Z,50.10
2019-02-16T09:59:04.153Z,50.29
2019-02-16T10:00:04.157Z,50.10
2019-02-16T10:01:04.176Z,49.74
2019-02-16T10:02:04.195Z,49.55
2019-02-16T10:03:04.205Z,49.26
2019-02-16T10:04:04.250Z,48.88
2019-02-16T10:05:04.265Z,48.88
2019-02-16T10:06:04.250Z,48.69
2019-02-16T10:07:04.289Z,48.43
2019-02-16T10:08:04.297Z,47.85
2019-02-16T10:09:04.319Z,47.39
2019-02-16T10:10:04.336Z,46.24
2019-02-16T10:11:04.344Z,46.34
2019-02-16T10:12:04.369Z,46.31
2019-02-16T10:13:04.383Z,46.98
2019-02-16T10:14:04.415Z,46.89
2019-02-16T10:15:04.425Z,47.01
2019-02-16T10:16:04.433Z,46.05
2019-02-16T10:17:04.459Z,45.95
2019-02-16T10:18:04.465Z,45.95
2019-02-16T10:19:04.483Z,46.24
2019-02-16T10:20:04.507Z,46.22
2019-02-16T10:21:04.526Z,46.72
2019-02-16T10:22:04.538Z,46.26
2019-02-16T10:23:04.560Z,45.52
2019-02-16T10:24:04.569Z,45.40
2019-02-16T10:25:04.599Z,44.75
2019-02-16T10:26:04.604Z,44.82
2019-02-16T10:27:04.629Z,45.59
2019-02-16T10:28:04.654Z,45.30
2019-02-16T10:29:04.662Z,45.30
2019-02-16T10:30:04.790Z,44.46
2019-02-16T10:31:04.693Z,44.46
2019-02-16T10:32:04.709Z,44.65
2019-02-16T10:33:04.727Z,44.75
2019-02-16T10:34:04.741Z,44.82
2019-02-16T10:35:04.757Z,45.50
2019-02-16T10:36:04.771Z,45.42
2019-02-16T10:37:04.797Z,45.15
2019-02-16T10:38:04.814Z,43.85
2019-02-16T10:39:04.840Z,42.68
2019-02-16T10:40:04.851Z,43.71
2019-02-16T10:41:04.869Z,43.52
2019-02-16T10:42:04.881Z,43.79
2019-02-16T10:43:04.902Z,43.88
2019-02-16T10:44:04.920Z,44.10
2019-02-16T10:45:04.940Z,43.74
2019-02-16T10:46:04.963Z,43.64
2019-02-16T10:47:04.971Z,43.26
2019-02-16T10:48:05.005Z,43.07
2019-02-16T10:49:06.917Z,42.97
2019-02-16T10:50:05.027Z,43.07
2019-02-16T10:51:05.043Z,42.97
2019-02-16T10:52:05.057Z,43.16
2019-02-16T10:53:05.079Z,43.62
2019-02-16T10:54:05.115Z,43.62
2019-02-16T10:55:05.115Z,43.71
2019-02-16T10:56:05.135Z,44.00
2019-02-16T10:57:05.147Z,43.62
2019-02-16T10:58:05.169Z,44.10
2019-02-16T10:59:05.187Z,44.00
2019-02-16T11:00:05.195Z,43.64
2019-02-16T11:01:05.211Z,43.45
2019-02-16T11:02:05.241Z,43.64
2019-02-16T11:03:05.268Z,44.31
2019-02-16T11:04:05.277Z,43.64
2019-02-16T11:05:05.282Z,43.66
2019-02-16T11:06:05.303Z,42.72
2019-02-16T11:07:05.316Z,42.33
2019-02-16T11:08:05.332Z,42.72
2019-02-16T11:09:05.358Z,42.05
2019-02-16T11:10:05.367Z,42.58
2019-02-16T11:11:05.386Z,43.16
2019-02-16T11:12:05.396Z,44.29
2019-02-16T11:13:05.420Z,44.29
2019-02-16T11:14:05.436Z,44.56
2019-02-16T11:15:05.448Z,45.23
2019-02-16T11:16:05.469Z,45.32
2019-02-16T11:17:05.482Z,45.25
2019-02-16T11:18:05.501Z,44.41
2019-02-16T11:19:05.526Z,43.64
2019-02-16T11:20:05.543Z,43.45
2019-02-16T11:21:05.549Z,43.66
2019-02-16T11:22:05.578Z,43.18
2019-02-16T11:23:05.590Z,43.20
2019-02-16T11:24:05.609Z,42.14
2019-02-16T11:25:05.639Z,42.41
2019-02-16T11:26:05.637Z,43.71
2019-02-16T11:27:05.654Z,43.35
2019-02-16T11:28:05.678Z,43.45
2019-02-16T11:29:05.695Z,43.93
2019-02-16T11:30:05.709Z,44.20
2019-02-16T11:31:05.722Z,43.95
2019-02-16T11:32:05.753Z,43.16
2019-02-16T11:33:05.751Z,43.45
2019-02-16T11:34:05.771Z,43.85
2019-02-16T11:35:05.794Z,43.76
2019-02-16T11:36:05.806Z,42.91
2019-02-16T11:37:05.822Z,42.07
2019-02-16T11:38:05.839Z,42.14
2019-02-16T11:39:05.861Z,42.60
2019-02-16T11:40:05.880Z,43.08
2019-02-16T11:41:05.888Z,43.01
2019-02-16T11:42:05.909Z,42.43
2019-02-16T11:43:05.930Z,41.97
2019-02-16T11:44:05.950Z,42.14
2019-02-16T11:45:05.958Z,42.07
2019-02-16T11:46:05.982Z,42.19
2019-02-16T11:47:05.987Z,41.51
2019-02-16T11:48:06.012Z,40.57
2019-02-16T11:49:06.039Z,40.57
2019-02-16T11:50:06.044Z,39.14
2019-02-16T11:51:06.064Z,39.89
2019-02-16T11:52:06.083Z,40.47
2019-02-16T11:53:06.096Z,39.53
2019-02-16T11:54:06.117Z,39.61
2019-02-16T11:55:06.131Z,40.09
2019-02-16T11:56:06.144Z,40.64
2019-02-16T11:57:06.171Z,40.78
2019-02-16T11:58:06.186Z,39.36
2019-02-16T11:59:06.195Z,38.28
2019-02-16T12:00:06.227Z,39.12
2019-02-16T12:01:06.229Z,39.41
2019-02-16T12:02:06.250Z,39.59
2019-02-16T12:03:06.273Z,40.55
2019-02-16T12:04:06.293Z,40.37
2019-02-16T12:05:06.306Z,40.01
2019-02-16T12:06:06.326Z,38.95
2019-02-16T12:07:06.346Z,39.12
2019-02-16T12:08:06.365Z,39.31
2019-02-16T12:09:06.375Z,39.12
2019-02-16T12:10:06.397Z,38.93
2019-02-16T12:11:06.405Z,39.76
2019-02-16T12:12:06.431Z,40.36
2019-02-16T12:13:06.443Z,40.45
2019-02-16T12:14:06.465Z,40.09
2019-02-16T12:15:06.489Z,39.22
2019-02-16T12:16:06.495Z,38.85
2019-02-16T12:17:06.523Z,38.08
2019-02-16T12:18:06.532Z,37.50
2019-02-16T12:19:06.553Z,37.21
2019-02-16T12:20:06.579Z,37.12
2019-02-16T12:21:06.579Z,38.45
2019-02-16T12:22:06.596Z,39.11
2019-02-16T12:23:06.613Z,39.59
2019-02-16T12:24:06.630Z,39.22
2019-02-16T12:25:06.665Z,38.08
2019-02-16T12:26:06.673Z,37.13
2019-02-16T12:27:06.683Z,36.96
2019-02-16T12:28:06.702Z,36.77
2019-02-16T12:29:06.725Z,36.94
2019-02-16T12:30:06.738Z,36.93
2019-02-16T12:31:06.744Z,37.68
2019-02-16T12:32:06.765Z,38.18
2019-02-16T12:33:06.781Z,37.98
2019-02-16T12:34:06.811Z,36.75
2019-02-16T12:35:06.822Z,36.83
2019-02-16T12:36:06.830Z,36.83
2019-02-16T12:37:06.849Z,37.02
2019-02-16T12:38:06.868Z,37.13
2019-02-16T12:39:06.885Z,37.04
2019-02-16T12:40:06.904Z,36.69
2019-02-16T12:41:06.914Z,36.03
2019-02-16T12:42:06.935Z,35.16
2019-02-16T12:43:06.974Z,35.26
2019-02-16T12:44:06.975Z,34.70
2019-02-16T12:45:07.000Z,33.94
2019-02-16T12:46:07.007Z,33.29
2019-02-16T12:47:07.022Z,33.09
2019-02-16T12:48:07.037Z,33.63
2019-02-16T12:49:07.066Z,34.02
2019-02-16T12:50:07.081Z,33.75
2019-02-16T12:51:07.104Z,32.99
2019-02-16T12:52:07.117Z,32.71
2019-02-16T12:53:07.132Z,32.87
2019-02-16T12:54:07.169Z,32.84
2019-02-16T12:55:14.387Z,33.91
2019-02-16T12:56:07.181Z,34.58
2019-02-16T12:57:07.202Z,34.29
2019-02-16T12:58:07.221Z,34.20
2019-02-16T12:59:07.254Z,34.12
2019-02-16T13:00:07.268Z,33.83
2019-02-16T13:01:07.268Z,34.08
2019-02-16T13:02:07.287Z,33.81
2019-02-16T13:03:07.311Z,33.97
2019-02-16T13:04:07.322Z,34.56
2019-02-16T13:05:07.344Z,34.56
2019-02-16T13:06:07.355Z,34.70
2019-02-16T13:07:07.383Z,32.96
2019-02-16T13:08:07.394Z,32.94
2019-02-16T13:09:07.417Z,33.92
2019-02-16T13:10:07.440Z,32.86
2019-02-16T13:11:07.446Z,32.38
2019-02-16T13:12:07.465Z,32.94
2019-02-16T13:13:07.488Z,33.22
2019-02-16T13:14:07.499Z,33.98
2019-02-16T13:15:07.513Z,33.98
2019-02-16T13:16:07.533Z,33.98
2019-02-16T13:17:07.548Z,33.42
2019-02-16T13:18:07.566Z,33.12
2019-02-16T13:19:07.583Z,33.95
2019-02-16T13:20:07.612Z,35.02
2019-02-16T13:21:07.613Z,35.03
2019-02-16T13:22:07.634Z,34.20
2019-02-16T13:23:07.649Z,33.42
2019-02-16T13:24:07.678Z,33.05
2019-02-16T13:25:07.684Z,32.60
2019-02-16T13:26:07.713Z,32.70
2019-02-16T13:27:07.712Z,32.49
2019-02-16T13:28:07.731Z,33.62
2019-02-16T13:29:07.744Z,34.21
2019-02-16T13:30:07.771Z,33.54
2019-02-16T13:31:07.791Z,33.25
2019-02-16T13:32:07.806Z,34.55
2019-02-16T13:33:08.723Z,35.77
2019-02-16T13:34:07.843Z,36.91
2019-02-16T13:43:34.695Z,36.44
2019-02-16T13:44:34.697Z,35.85
2019-02-16T13:46:28.867Z,37.85
2019-02-16T13:47:28.880Z,37.10
2019-02-16T13:49:22.221Z,35.80
2019-02-16T13:50:22.199Z,34.48
2019-02-16T13:51:22.217Z,33.62
2019-02-16T13:52:22.343Z,34.08
2019-02-16T13:53:22.247Z,34.90
2019-02-16T13:54:22.301Z,36.71
2019-02-16T13:55:22.279Z,37.29
2019-02-16T13:56:22.334Z,36.83
2019-02-16T13:57:22.316Z,35.92
2019-02-16T13:58:22.341Z,33.98
2019-02-16T13:59:22.345Z,34.03
2019-02-16T14:00:22.366Z,35.75
2019-02-16T14:01:22.380Z,36.13
2019-02-16T14:02:22.417Z,36.11
2019-02-16T14:03:22.417Z,36.43
2019-02-16T14:04:22.430Z,36.15
2019-02-16T14:05:22.456Z,36.09
2019-02-16T14:06:22.469Z,35.05
2019-02-16T14:07:22.479Z,35.63
2019-02-16T14:08:22.496Z,34.38
2019-02-16T14:09:22.517Z,35.05
2019-02-16T14:10:22.533Z,34.56
2019-02-16T14:11:22.546Z,34.66
2019-02-16T14:12:22.565Z,34.64
2019-02-16T14:13:22.576Z,35.03
2019-02-16T14:14:22.597Z,36.38
2019-02-16T14:15:22.607Z,37.33
2019-02-16T14:16:22.630Z,37.04
2019-02-16T14:17:22.650Z,36.94
2019-02-16T14:18:22.665Z,35.67
2019-02-16T14:19:22.679Z,37.10
2019-02-16T14:20:22.689Z,36.55
2019-02-16T14:21:22.714Z,34.86
2019-02-16T14:22:22.727Z,34.06
2019-02-16T14:23:22.736Z,33.87
2019-02-16T14:24:22.759Z,34.53
2019-02-16T14:25:22.777Z,34.53
2019-02-16T14:26:22.792Z,35.02
2019-02-16T14:27:22.805Z,34.74
2019-02-16T14:28:22.811Z,34.18
2019-02-16T14:29:22.837Z,33.80
2019-02-16T14:30:22.868Z,34.14
2019-02-16T14:31:28.403Z,34.90
2019-02-16T14:32:22.885Z,34.92
2019-02-16T14:33:22.902Z,35.02
2019-02-16T14:34:22.921Z,34.92
2019-02-16T14:35:22.937Z,35.02
2019-02-16T14:36:22.981Z,34.64
2019-02-16T14:37:22.968Z,33.33
2019-02-16T14:38:23.000Z,32.82
2019-02-16T14:39:22.998Z,32.84
2019-02-16T14:40:23.015Z,32.54
2019-02-16T14:41:23.034Z,32.54
2019-02-16T14:42:23.048Z,32.56
2019-02-16T14:43:23.073Z,32.39
2019-02-16T14:44:23.069Z,31.54
2019-02-16T14:45:23.094Z,31.34
2019-02-16T14:46:23.138Z,30.66
2019-02-16T14:47:23.133Z,30.55
2019-02-16T14:48:23.157Z,31.12
2019-02-16T14:49:23.162Z,31.48
2019-02-16T14:50:23.168Z,32.52
2019-02-16T14:51:23.200Z,32.46
2019-02-16T14:52:23.207Z,32.47
2019-02-16T14:53:23.229Z,31.73
2019-02-16T14:54:23.237Z,30.76
2019-02-16T14:55:23.255Z,30.41
2019-02-16T14:56:23.264Z,29.74
2019-02-16T14:57:23.284Z,29.34
2019-02-16T14:58:23.300Z,29.92
2019-02-16T14:59:23.316Z,30.28
2019-02-16T15:00:23.340Z,31.02
2019-02-16T15:01:23.352Z,32.34
2019-02-16T15:02:23.369Z,33.02
2019-02-16T15:03:23.376Z,32.92
2019-02-16T15:04:23.396Z,32.82
2019-02-16T15:05:23.416Z,32.82
2019-02-16T15:06:23.428Z,33.04
2019-02-16T15:07:23.443Z,32.65
2019-02-16T15:08:23.452Z,33.10
2019-02-16T15:09:23.480Z,33.86
2019-02-16T15:10:23.506Z,34.50
2019-02-16T15:11:23.513Z,35.46
2019-02-16T15:12:23.535Z,35.85
2019-02-16T15:13:23.552Z,36.21
2019-02-16T15:14:23.562Z,36.68
2019-02-16T15:15:23.569Z,36.89
2019-02-16T15:16:23.584Z,36.87
2019-02-16T15:17:23.595Z,37.08
2019-02-16T15:18:23.623Z,36.49
2019-02-16T15:19:25.641Z,37.83
2019-02-16T15:20:23.646Z,37.83
2019-02-16T15:21:23.652Z,37.27
2019-02-16T15:22:23.673Z,36.89
2019-02-16T15:23:23.689Z,36.60
2019-02-16T15:24:23.700Z,37.16
2019-02-16T15:25:23.737Z,37.83
2019-02-16T15:26:28.646Z,38.12
2019-02-16T15:27:23.765Z,37.62
2019-02-16T15:28:23.761Z,38.20
2019-02-16T15:29:23.770Z,38.95
2019-02-16T15:30:23.783Z,39.04
2019-02-16T15:31:23.795Z,39.72
2019-02-16T15:32:23.804Z,39.99
2019-02-16T15:33:24.062Z,40.37
2019-02-16T15:34:23.850Z,40.37
2019-02-16T15:35:23.872Z,40.20
2019-02-16T15:36:24.403Z,40.49
2019-02-16T15:37:23.885Z,39.72
2019-02-16T15:38:23.894Z,40.47
2019-02-16T15:39:23.899Z,40.58
2019-02-16T15:40:23.929Z,40.30
2019-02-16T15:41:23.930Z,40.20
2019-02-16T15:42:23.958Z,40.47
2019-02-16T15:43:23.968Z,40.47
2019-02-16T15:44:23.976Z,40.56
2019-02-16T15:45:24.001Z,40.76
2019-02-16T15:46:24.008Z,41.02
2019-02-16T15:47:24.012Z,41.05
2019-02-16T15:48:24.021Z,40.95
2019-02-16T15:49:24.044Z,41.31
2019-02-16T15:50:24.050Z,41.12
2019-02-16T15:51:24.068Z,41.99
2019-02-16T15:52:24.075Z,42.25
2019-02-16T15:53:24.093Z,42.54
2019-02-16T15:54:24.101Z,42.90
2019-02-16T15:55:24.109Z,42.93
2019-02-16T15:56:24.127Z,43.12
2019-02-16T15:57:24.136Z,43.12
2019-02-16T15:58:24.161Z,43.12
2019-02-16T15:59:24.172Z,42.35
2019-02-16T16:00:24.237Z,42.73
2019-02-16T16:01:24.212Z,42.83
2019-02-16T16:02:24.211Z,42.90
2019-02-16T16:03:24.219Z,43.19
2019-02-16T16:04:24.267Z,43.67
2019-02-16T16:05:24.240Z,43.46
2019-02-16T16:06:24.251Z,44.13
2019-02-16T16:07:24.269Z,44.68
2019-02-16T16:08:24.268Z,44.80
2019-02-16T16:09:24.286Z,44.80
2019-02-16T16:10:24.290Z,44.87
2019-02-16T16:11:24.299Z,45.26
2019-02-16T16:12:24.327Z,45.64
2019-02-16T16:13:24.328Z,45.93
2019-02-16T16:14:24.344Z,45.64
2019-02-16T16:15:24.350Z,46.29
2019-02-16T16:16:24.365Z,46.58
2019-02-16T16:17:24.370Z,46.67
2019-02-16T16:18:24.382Z,47.15
2019-02-16T16:19:24.401Z,47.25
2019-02-16T16:20:24.399Z,47.34
2019-02-16T16:21:24.418Z,48.18
2019-02-16T16:22:24.435Z,48.11
2019-02-16T16:23:24.433Z,48.40
2019-02-16T16:24:24.457Z,48.69
2019-02-16T16:25:24.464Z,48.47
2019-02-16T16:26:24.466Z,48.28
2019-02-16T16:27:24.479Z,48.57
2019-02-16T16:28:24.504Z,49.24
2019-02-16T16:29:24.495Z,49.24
2019-02-16T16:30:24.523Z,49.24
2019-02-16T16:31:24.516Z,49.43
2019-02-16T16:32:24.531Z,49.62
2019-02-16T16:33:24.565Z,49.62
2019-02-16T16:34:24.554Z,49.62
2019-02-16T16:35:24.562Z,49.71
2019-02-16T16:36:24.575Z,49.81
2019-02-16T16:37:24.574Z,50.00
2019-02-16T16:38:24.589Z,50.20
2019-02-16T16:39:24.597Z,50.38
2019-02-16T16:40:24.623Z,50.36
2019-02-16T16:41:24.621Z,50.56
2019-02-16T16:42:24.646Z,50.74
2019-02-16T16:43:24.645Z,51.32
2019-02-16T16:44:24.657Z,51.13
2019-02-16T16:45:24.663Z,51.32
2019-02-16T16:46:24.673Z,51.87
2019-02-16T16:47:24.681Z,52.25
2019-02-16T16:48:24.690Z,51.87
2019-02-16T16:49:24.705Z,52.15
2019-02-16T16:50:24.702Z,52.06
2019-02-16T16:51:24.735Z,52.54
2019-02-16T16:52:24.740Z,52.63
2019-02-16T16:53:24.743Z,52.73
2019-02-16T16:54:24.751Z,52.92
2019-02-16T16:55:24.757Z,52.73
2019-02-16T16:56:28.726Z,53.08
2019-02-16T16:57:24.784Z,53.18
2019-02-16T16:58:24.789Z,53.18
2019-02-16T16:59:24.795Z,53.75
2019-02-16T17:00:24.821Z,53.85
2019-02-16T17:02:24.827Z,54.14
2019-02-16T17:03:24.834Z,54.04
2019-02-16T17:04:24.843Z,54.23
2019-02-16T17:05:24.853Z,54.71
2019-02-16T17:06:24.863Z,54.97
2019-02-16T17:07:24.996Z,55.47
2019-02-16T17:08:24.873Z,55.29
2019-02-16T17:09:24.895Z,54.90
2019-02-16T17:10:24.904Z,55.16
2019-02-16T17:11:24.910Z,55.45
2019-02-16T17:12:24.923Z,55.16
2019-02-16T17:13:24.930Z,55.26
2019-02-16T17:14:24.961Z,55.45
2019-02-16T17:15:24.938Z,55.45
2019-02-16T17:16:25.011Z,56.12
2019-02-16T17:17:24.967Z,56.31
2019-02-16T17:18:24.973Z,55.93
2019-02-16T17:19:24.979Z,56.12
2019-02-16T17:20:24.991Z,55.93
2019-02-16T17:22:25.016Z,56.21
2019-02-16T17:23:25.026Z,56.02
2019-02-16T17:24:25.027Z,55.93
2019-02-16T17:25:25.036Z,56.50
2019-02-16T17:26:25.050Z,56.40
2019-02-16T17:27:25.054Z,56.69
2019-02-16T17:28:25.062Z,56.50
2019-02-16T17:29:25.079Z,56.60
2019-02-16T17:30:25.091Z,57.07
2019-02-16T17:31:25.095Z,57.26
2019-02-16T17:32:25.101Z,57.07
2019-02-16T17:33:25.114Z,57.26
2019-02-16T17:34:25.135Z,57.46
2019-02-16T17:35:25.128Z,57.36
2019-02-16T17:36:25.134Z,57.36
2019-02-16T17:37:25.148Z,57.36
2019-02-16T17:38:25.170Z,57.46
2019-02-16T17:39:25.165Z,57.75
2019-02-16T17:40:25.190Z,57.07
2019-02-16T17:41:25.178Z,57.75
2019-02-16T17:42:25.187Z,57.93
2019-02-16T17:43:25.186Z,57.93
2019-02-16T17:44:25.212Z,57.93
2019-02-16T17:45:25.210Z,58.22
2019-02-16T17:46:25.236Z,58.22
2019-02-16T17:47:25.249Z,58.32
2019-02-16T17:48:25.241Z,58.80
2019-02-16T17:49:25.252Z,58.70
2019-02-16T17:50:25.257Z,58.70
2019-02-16T17:51:25.267Z,58.32
2019-02-16T17:52:25.264Z,58.98
2019-02-16T17:53:25.295Z,58.67
2019-02-16T17:54:25.288Z,58.86
2019-02-16T17:55:25.300Z,58.58
2019-02-16T17:57:25.321Z,59.15
2019-02-16T17:58:25.317Z,58.98
2019-02-16T17:59:25.344Z,59.27
2019-02-16T18:00:25.344Z,58.95
2019-02-16T18:01:25.350Z,59.24
2019-02-16T18:02:25.362Z,59.24
2019-02-16T18:03:25.392Z,59.53
2019-02-16T18:04:25.373Z,59.44
2019-02-16T18:05:25.388Z,59.53
2019-02-16T18:06:25.398Z,59.81
2019-02-16T18:07:25.404Z,59.81
2019-02-16T18:08:25.410Z,59.88
2019-02-16T18:09:25.445Z,60.17
2019-02-16T18:10:25.427Z,60.27
2019-02-16T18:11:25.436Z,60.64
2019-02-16T18:12:25.452Z,61.69
2019-02-16T18:13:25.461Z,61.89
2019-02-16T18:14:25.482Z,61.60
2019-02-16T18:15:25.472Z,61.60
2019-02-16T18:16:25.499Z,61.60
2019-02-16T18:17:25.495Z,61.60
2019-02-16T18:18:25.511Z,61.89
2019-02-16T18:19:25.517Z,61.51
2019-02-16T18:20:25.512Z,61.51
2019-02-16T18:21:25.547Z,62.75
2019-02-16T18:22:25.539Z,62.94
2019-02-16T18:23:25.547Z,63.48
2019-02-16T18:24:25.573Z,64.53
2019-02-16T18:25:25.557Z,64.05
2019-02-16T18:26:25.567Z,64.34
2019-02-16T18:27:25.570Z,64.18
2019-02-16T18:28:25.588Z,63.86
2019-02-16T18:29:25.592Z,64.34
2019-02-16T18:30:25.601Z,63.00
2019-02-16T18:31:25.611Z,63.10
2019-02-16T18:32:31.356Z,63.00
2019-02-16T18:33:25.614Z,63.96
2019-02-16T18:34:25.630Z,63.76
2019-02-16T18:35:25.637Z,63.86
2019-02-16T18:36:25.692Z,63.67
2019-02-16T18:37:25.653Z,63.86
2019-02-16T18:38:25.669Z,63.48
2019-02-16T18:39:25.674Z,63.86
2019-02-16T18:40:25.817Z,63.86
2019-02-16T18:41:25.690Z,64.81
2019-02-16T18:42:25.699Z,64.62
2019-02-16T18:43:25.701Z,64.53
2019-02-16T18:44:25.707Z,64.25
2019-02-16T18:45:25.730Z,64.34
2019-02-16T18:46:25.735Z,64.34
2019-02-16T18:47:25.735Z,64.25
2019-02-16T18:48:25.733Z,64.72
2019-02-16T18:49:25.748Z,64.88
2019-02-16T18:50:25.757Z,64.97
2019-02-16T18:51:25.780Z,64.97
2019-02-16T18:52:25.774Z,65.45
2019-02-16T18:53:25.783Z,65.93
2019-02-16T18:54:25.787Z,65.83
2019-02-16T18:55:25.798Z,66.69
2019-02-16T18:56:25.827Z,66.60
2019-02-16T18:57:25.815Z,67.07
2019-02-16T18:58:25.846Z,67.42
2019-02-16T18:59:25.828Z,67.14
2019-02-16T19:00:25.863Z,67.80
2019-02-16T19:01:25.858Z,68.47
2019-02-16T19:02:25.853Z,68.47
2019-02-16T19:03:25.858Z,69.23
2019-02-16T19:04:25.872Z,69.71
2019-02-16T19:05:25.874Z,69.33
2019-02-16T19:06:25.895Z,69.52
2019-02-16T19:07:25.915Z,69.62
2019-02-16T19:08:25.980Z,69.62
2019-02-16T19:09:25.924Z,69.81
2019-02-16T19:10:25.928Z,69.71
2019-02-16T19:11:25.926Z,69.62
2019-02-16T19:12:25.927Z,69.48
2019-02-16T19:13:25.956Z,70.44
2019-02-16T19:14:25.946Z,70.34
2019-02-16T19:15:25.973Z,70.34
2019-02-16T19:16:25.961Z,70.53
2019-02-16T19:17:25.976Z,71.11
2019-02-16T19:18:25.985Z,71.01
2019-02-16T19:19:25.992Z,71.11
2019-02-16T19:20:26.005Z,71.39
2019-02-16T19:21:25.992Z,71.30
2019-02-16T19:22:26.004Z,71.01
2019-02-16T19:23:26.013Z,71.58
2019-02-16T19:24:26.030Z,71.48
2019-02-16T19:25:26.030Z,71.30
2019-02-16T19:26:26.047Z,70.72
2019-02-16T19:27:26.055Z,70.82
2019-02-16T19:28:26.059Z,71.30
2019-02-16T19:29:26.064Z,71.96
2019-02-16T19:30:26.070Z,71.77
2019-02-16T19:31:26.098Z,71.77
2019-02-16T19:32:26.079Z,72.25
2019-02-16T19:33:26.091Z,72.16
2019-02-16T19:34:26.105Z,72.16
2019-02-16T19:35:26.108Z,72.06
2019-02-16T19:36:26.125Z,71.96
2019-02-16T19:37:26.279Z,71.96
2019-02-16T19:38:26.134Z,72.06
2019-02-16T19:39:26.144Z,72.16
2019-02-16T19:40:26.166Z,71.87
2019-02-16T19:41:26.167Z,71.77
2019-02-16T19:42:26.225Z,72.19
2019-02-16T19:43:28.055Z,71.33
2019-02-16T19:44:26.174Z,71.33
2019-02-16T19:45:26.187Z,71.33
2019-02-16T19:46:26.191Z,71.43
2019-02-16T19:47:26.202Z,71.52
2019-02-16T19:48:26.202Z,71.81
2019-02-16T19:50:26.214Z,72.19
2019-02-16T19:51:26.223Z,72.00
2019-02-16T19:52:26.228Z,72.09
2019-02-16T19:53:26.242Z,71.01